createdAt,value
2023-01-03T00:01:47.635Z,53.65
2023-01-03T00:04:17.002Z,52.38
2023-01-03T00:06:47.720Z,48.17
2023-01-03T00:09:21.945Z,59.00
2023-01-03T00:12:09.928Z,61.70
2023-01-03T00:14:40.376Z,51.63
2023-01-03T00:17:10.934Z,56.03
2023-01-03T00:19:42.415Z,64.18
2023-01-03T00:22:13.341Z,81.45
2023-01-03T00:24:45.149Z,42.92
2023-01-03T00:27:14.640Z,42.72
2023-01-03T00:29:44.075Z,48.10
2023-01-03T00:32:13.025Z,39.40
2023-01-03T00:34:44.800Z,38.33
2023-01-03T00:37:14.260Z,48.53
2023-01-03T00:39:44.989Z,42.10
2023-01-03T00:42:14.324Z,33.58
2023-01-03T00:44:43.222Z,44.42
2023-01-03T00:47:12.094Z,38.00
2023-01-03T00:49:41.089Z,44.38
2023-01-03T00:52:09.953Z,38.78
2023-01-03T00:54:39.073Z,44.67
2023-01-03T00:57:09.275Z,35.60
2023-01-03T00:59:38.081Z,37.75
2023-01-03T01:02:08.203Z,37.67
2023-01-03T01:04:37.136Z,33.83
2023-01-03T01:07:06.001Z,37.97
2023-01-03T01:09:37.559Z,31.27
2023-01-03T01:12:08.010Z,39.25
2023-01-03T01:14:38.242Z,29.92
2023-01-03T01:17:09.044Z,32.67
2023-01-03T01:19:39.474Z,31.38
2023-01-03T01:22:09.143Z,31.85
2023-01-03T01:24:38.289Z,34.55
2023-01-03T01:27:07.348Z,45.20
2023-01-03T01:29:36.857Z,44.33
2023-01-03T01:32:07.365Z,41.03
2023-01-03T01:34:36.420Z,43.00
2023-01-03T01:37:05.584Z,63.30
2023-01-03T01:39:34.903Z,47.67
2023-01-03T01:42:28.719Z,49.10
2023-01-03T01:45:00.811Z,49.95
2023-01-03T01:47:39.842Z,63.05
2023-01-03T01:50:19.796Z,59.85
2023-01-03T01:52:54.959Z,43.22
2023-01-03T01:55:27.884Z,51.55
2023-01-03T01:57:56.774Z,35.25
2023-01-03T02:00:25.603Z,48.95
2023-01-03T02:02:56.995Z,34.58
2023-01-03T02:05:27.335Z,47.78
2023-01-03T02:07:56.871Z,44.75
2023-01-03T02:10:35.691Z,44.10
2023-01-03T02:13:11.040Z,43.92
2023-01-03T02:15:51.088Z,43.08
2023-01-03T02:18:36.885Z,43.83
2023-01-03T02:21:46.902Z,38.97
2023-01-03T02:24:50.129Z,43.25
2023-01-03T02:27:43.384Z,40.72
2023-01-03T02:30:40.920Z,40.92
2023-01-03T02:33:19.768Z,56.55
2023-01-03T02:36:00.181Z,48.25
2023-01-03T02:38:41.834Z,53.58
2023-01-03T02:41:21.133Z,46.20
2023-01-03T02:43:55.786Z,52.45
2023-01-03T02:46:31.445Z,50.88
2023-01-03T02:49:07.424Z,53.00
2023-01-03T02:51:39.663Z,56.95
2023-01-03T02:54:14.041Z,57.10
2023-01-03T02:56:48.824Z,66.65
2023-01-03T02:59:23.142Z,57.63
2023-01-03T03:01:54.406Z,55.17
2023-01-03T03:04:25.117Z,74.25
2023-01-03T03:07:02.196Z,62.42
2023-01-03T03:09:31.348Z,61.10
2023-01-03T03:12:20.667Z,49.08
2023-01-03T03:14:52.570Z,55.30
2023-01-03T03:17:30.144Z,57.85
2023-01-03T03:20:17.022Z,83.88
2023-01-03T03:23:06.198Z,79.68
2023-01-03T03:25:41.252Z,75.85
2023-01-03T03:28:31.905Z,61.17
2023-01-03T03:31:05.198Z,63.95
2023-01-03T03:33:39.224Z,61.72
2023-01-03T03:36:13.874Z,49.30
2023-01-03T03:38:45.035Z,57.95
2023-01-03T03:41:39.205Z,59.78
2023-01-03T03:44:35.750Z,49.78
2023-01-03T03:49:45.436Z,50.50
2023-01-03T03:52:18.246Z,48.88
2023-01-03T03:54:52.091Z,58.97
2023-01-03T03:57:27.254Z,44.15
2023-01-03T03:59:59.058Z,46.65
2023-01-03T04:02:30.537Z,40.28
2023-01-03T04:05:06.014Z,33.33
2023-01-03T04:07:35.071Z,48.38
2023-01-03T04:10:04.433Z,54.40
2023-01-03T04:12:33.309Z,55.47
2023-01-03T04:15:03.962Z,45.10
2023-01-03T04:17:32.819Z,46.03
2023-01-03T04:20:03.212Z,60.03
2023-01-03T04:22:32.219Z,38.20
2023-01-03T04:25:01.112Z,48.13
2023-01-03T04:27:31.093Z,76.95
2023-01-03T04:29:59.930Z,57.95
2023-01-03T04:32:28.855Z,52.58
2023-01-03T04:34:57.733Z,57.53
2023-01-03T04:37:28.805Z,50.95
2023-01-03T04:39:57.749Z,54.38
2023-01-03T04:42:44.086Z,75.38
2023-01-03T04:45:13.546Z,56.35
2023-01-03T04:47:42.415Z,75.53
2023-01-03T04:50:11.466Z,62.10
2023-01-03T04:52:41.814Z,54.13
2023-01-03T04:55:11.155Z,57.53
2023-01-03T04:57:40.080Z,78.10
2023-01-03T05:00:10.364Z,56.50
2023-01-03T05:02:39.355Z,53.17
2023-01-03T05:05:09.273Z,66.40
2023-01-03T05:07:38.792Z,89.00
2023-01-03T05:10:09.815Z,77.25
2023-01-03T05:12:38.691Z,88.00
2023-01-03T05:15:08.897Z,91.55
2023-01-03T05:17:37.799Z,78.13
2023-01-03T05:20:21.678Z,61.55
2023-01-03T05:23:07.767Z,57.50
2023-01-03T05:25:52.837Z,85.60
2023-01-03T05:28:24.351Z,103.47
2023-01-03T05:30:53.217Z,92.32
2023-01-03T05:33:22.125Z,111.30
2023-01-03T05:35:51.022Z,91.90
2023-01-03T05:38:20.249Z,93.82
2023-01-03T05:40:50.521Z,99.72
2023-01-03T05:43:19.436Z,80.20
2023-01-03T05:45:50.627Z,72.18
2023-01-03T05:48:20.193Z,74.68
2023-01-03T05:50:50.013Z,87.38
2023-01-03T05:53:19.947Z,83.45
2023-01-03T05:55:50.356Z,81.72
2023-01-03T05:58:19.141Z,81.28
2023-01-03T06:00:48.032Z,67.95
2023-01-03T06:03:16.884Z,87.18
2023-01-03T06:05:50.145Z,89.32
2023-01-03T06:08:19.565Z,190.05
2023-01-03T06:10:48.490Z,89.20
2023-01-03T06:13:19.089Z,124.50
2023-01-03T06:16:07.971Z,133.88
2023-01-03T06:18:36.427Z,127.72
2023-01-03T06:21:05.966Z,123.50
2023-01-03T06:23:34.864Z,139.40
2023-01-03T06:26:04.832Z,141.38
2023-01-03T06:28:35.191Z,129.23
2023-01-03T06:31:05.943Z,128.23
2023-01-03T06:33:34.895Z,149.13
2023-01-03T06:36:04.774Z,125.68
2023-01-03T06:38:33.829Z,120.82
2023-01-03T06:41:03.345Z,130.48
2023-01-03T06:43:34.054Z,145.38
2023-01-03T06:46:20.695Z,142.70
2023-01-03T06:49:09.464Z,134.63
2023-01-03T06:51:55.744Z,146.27
2023-01-03T06:54:27.082Z,156.23
2023-01-03T06:56:56.346Z,171.45
2023-01-03T06:59:27.359Z,159.90
2023-01-03T07:01:56.840Z,155.50
2023-01-03T07:04:26.754Z,157.05
2023-01-03T07:06:55.792Z,142.00
2023-01-03T07:09:25.369Z,162.35
2023-01-03T07:11:56.519Z,173.13
2023-01-03T07:14:28.163Z,135.23
2023-01-03T07:16:57.114Z,142.75
2023-01-03T07:19:25.915Z,139.18
2023-01-03T07:21:54.786Z,133.73
2023-01-03T07:24:23.660Z,98.15
2023-01-03T07:26:52.499Z,91.05
2023-01-03T07:29:21.438Z,103.25
2023-01-03T07:31:51.795Z,98.57
2023-01-03T07:34:21.089Z,110.18
2023-01-03T07:36:49.956Z,91.50
2023-01-03T07:39:19.045Z,89.97
2023-01-03T07:42:05.181Z,96.05
2023-01-03T07:44:34.000Z,96.88
2023-01-03T07:47:04.239Z,77.55
2023-01-03T07:49:33.632Z,68.53
2023-01-03T07:52:03.293Z,66.60
2023-01-03T07:54:32.161Z,98.40
2023-01-03T07:57:02.047Z,47.50
2023-01-03T07:59:30.903Z,51.65
2023-01-03T08:01:59.878Z,51.47
2023-01-03T08:04:31.133Z,68.00
2023-01-03T08:07:00.032Z,65.85
2023-01-03T08:09:47.154Z,76.82
2023-01-03T08:12:33.215Z,54.95
2023-01-03T08:15:02.549Z,50.40
2023-01-03T08:17:31.407Z,38.38
2023-01-03T08:20:02.143Z,36.88
2023-01-03T08:22:30.977Z,32.88
2023-01-03T08:24:59.830Z,35.08
2023-01-03T08:27:28.643Z,37.33
2023-01-03T08:29:57.487Z,45.97
2023-01-03T08:32:26.389Z,39.60
2023-01-03T08:34:55.308Z,36.58
2023-01-03T08:37:25.571Z,26.48
2023-01-03T08:39:58.184Z,32.53
2023-01-03T08:42:27.857Z,30.45
2023-01-03T08:45:02.118Z,28.23
2023-01-03T08:47:32.566Z,25.85
2023-01-03T08:50:02.089Z,22.60
2023-01-03T08:52:35.264Z,20.90
2023-01-03T08:55:05.309Z,27.02
2023-01-03T08:57:34.118Z,34.50
2023-01-03T09:00:05.778Z,29.17
2023-01-03T09:02:35.819Z,31.15
2023-01-03T09:05:05.036Z,23.13
2023-01-03T09:07:35.399Z,27.20
2023-01-03T09:10:04.289Z,15.75
2023-01-03T09:12:33.138Z,19.27
2023-01-03T09:15:02.046Z,12.50
2023-01-03T09:17:31.201Z,14.10
2023-01-03T09:20:00.112Z,20.27
2023-01-03T09:22:29.664Z,18.42
2023-01-03T09:24:59.925Z,16.27
2023-01-03T09:27:29.537Z,29.75
2023-01-03T09:29:58.404Z,13.85
2023-01-03T09:50:34.659Z,15.00
2023-01-03T09:53:26.542Z,13.82
2023-01-03T09:56:15.403Z,10.35
2023-01-03T09:59:09.995Z,8.55
2023-01-03T10:02:10.025Z,10.45
2023-01-03T10:05:07.095Z,5.93
2023-01-03T10:07:58.091Z,4.18
2023-01-03T10:10:36.626Z,5.93
2023-01-03T10:13:20.412Z,5.65
2023-01-03T10:16:01.259Z,5.20
2023-01-03T10:18:54.260Z,6.47
2023-01-03T10:21:29.656Z,6.78
2023-01-03T10:24:00.635Z,6.38
2023-01-03T10:26:34.427Z,7.40
2023-01-03T10:29:04.129Z,10.15
2023-01-03T10:31:44.347Z,8.35
2023-01-03T10:34:13.443Z,9.30
2023-01-03T10:36:42.296Z,6.72
2023-01-03T10:39:12.920Z,5.57
2023-01-03T10:41:45.611Z,8.20
2023-01-03T10:44:25.717Z,4.85
2023-01-03T10:46:56.136Z,5.28
2023-01-03T10:49:29.325Z,5.75
2023-01-03T10:52:03.939Z,6.85
2023-01-03T10:54:49.489Z,6.75
2023-01-03T10:57:44.290Z,6.20
2023-01-03T11:00:32.437Z,5.90
2023-01-03T11:03:14.445Z,8.73
2023-01-03T11:05:45.804Z,6.82
2023-01-03T11:08:21.173Z,5.00
2023-01-03T11:10:54.369Z,6.45
2023-01-03T11:13:28.628Z,4.32
2023-01-03T11:15:59.169Z,5.15
2023-01-03T11:18:29.763Z,4.53
2023-01-03T11:21:09.718Z,6.65
2023-01-03T11:23:58.799Z,3.65
2023-01-03T11:26:42.627Z,5.00
2023-01-03T11:29:35.429Z,9.15
2023-01-03T11:32:17.399Z,3.55
2023-01-03T11:35:25.400Z,7.15
2023-01-03T11:38:03.701Z,7.95
2023-01-03T11:40:53.207Z,7.40
2023-01-03T11:43:40.519Z,7.43
2023-01-03T11:46:24.187Z,5.40
2023-01-03T11:49:07.280Z,7.88
2023-01-03T11:51:42.437Z,7.13
2023-01-03T11:54:27.476Z,5.93
2023-01-03T11:56:59.431Z,7.55
2023-01-03T12:00:01.368Z,6.90
2023-01-03T12:03:05.398Z,4.80
2023-01-03T12:05:47.349Z,6.55
2023-01-03T12:08:45.886Z,6.88
2023-01-03T12:11:53.026Z,5.22
2023-01-03T12:14:25.494Z,6.07
2023-01-03T12:16:58.930Z,5.95
2023-01-03T12:19:39.239Z,5.78
2023-01-03T12:22:17.767Z,5.78
2023-01-03T12:24:54.241Z,6.22
2023-01-03T12:27:33.813Z,5.15
2023-01-03T12:30:07.301Z,6.30
2023-01-03T12:32:46.434Z,6.60
2023-01-03T12:35:31.734Z,3.67
2023-01-03T12:38:00.609Z,5.38
2023-01-03T12:40:39.686Z,7.43
2023-01-03T12:43:14.223Z,4.47
2023-01-03T12:45:48.983Z,7.78
2023-01-03T12:48:36.566Z,3.63
2023-01-03T12:51:05.697Z,3.92
2023-01-03T12:53:39.983Z,3.45
2023-01-03T12:56:29.753Z,9.13
2023-01-03T12:59:10.687Z,5.22
2023-01-03T13:01:44.480Z,5.15
2023-01-03T13:04:23.681Z,13.05
2023-01-03T13:07:04.811Z,3.95
2023-01-03T13:09:37.605Z,4.13
2023-01-03T13:12:09.877Z,7.55
2023-01-03T13:14:54.094Z,6.10
2023-01-03T13:17:25.472Z,4.63
2023-01-03T13:20:00.636Z,7.50
2023-01-03T13:22:52.050Z,10.05
2023-01-03T13:25:40.058Z,8.27
2023-01-03T13:28:34.163Z,7.70
2023-01-03T13:31:39.552Z,5.78
2023-01-03T13:34:31.136Z,12.32
2023-01-03T13:37:21.270Z,5.50
2023-01-03T13:40:19.843Z,5.45
2023-01-03T13:42:48.765Z,6.28
2023-01-03T13:45:57.640Z,12.77
2023-01-03T13:48:37.951Z,6.13
2023-01-03T13:51:29.404Z,8.57
2023-01-03T13:54:05.627Z,8.90
2023-01-03T13:56:58.854Z,5.45
2023-01-03T13:59:34.375Z,5.88
2023-01-03T14:02:35.235Z,6.75
2023-01-03T14:05:24.132Z,5.90
2023-01-03T14:08:13.975Z,5.65
2023-01-03T14:11:00.731Z,6.30
2023-01-03T14:13:39.224Z,7.97
2023-01-03T14:16:20.492Z,4.47
2023-01-03T14:18:57.242Z,3.80
2023-01-03T14:21:30.049Z,5.97
2023-01-03T14:24:01.888Z,9.15
2023-01-03T14:26:33.853Z,4.32
2023-01-03T14:29:03.253Z,5.03
2023-01-03T14:31:32.130Z,6.70
2023-01-03T14:34:03.075Z,5.03
2023-01-03T14:36:31.941Z,7.43
2023-01-03T14:39:02.401Z,5.32
2023-01-03T14:41:34.608Z,16.33
2023-01-03T14:44:07.209Z,7.43
2023-01-03T14:46:37.085Z,4.43
2023-01-03T14:49:21.518Z,5.43
2023-01-03T14:51:50.769Z,3.28
2023-01-03T14:54:21.455Z,8.15
2023-01-03T14:56:51.762Z,7.53
2023-01-03T14:59:24.049Z,4.85
2023-01-03T15:01:54.329Z,4.15
2023-01-03T15:04:25.511Z,13.05
2023-01-03T15:07:07.947Z,10.55
2023-01-03T15:09:41.928Z,13.75
2023-01-03T15:12:16.500Z,21.33
2023-01-03T15:14:45.463Z,19.08
2023-01-03T15:17:16.812Z,30.02
2023-01-03T15:19:51.608Z,44.80
2023-01-03T15:22:23.358Z,42.42
2023-01-03T15:25:03.203Z,48.13
2023-01-03T15:27:44.059Z,63.90
2023-01-03T15:30:25.114Z,65.90
2023-01-03T15:32:59.620Z,60.47
2023-01-03T15:35:38.525Z,77.55
2023-01-03T15:38:20.309Z,78.88
2023-01-03T15:40:51.786Z,73.85
2023-01-03T15:43:27.112Z,63.30
2023-01-03T15:46:04.177Z,67.70
2023-01-03T15:48:36.248Z,79.65
2023-01-03T15:51:06.622Z,64.25
2023-01-03T15:53:43.812Z,68.97
2023-01-03T15:56:19.249Z,56.45
2023-01-03T15:58:53.086Z,76.13
2023-01-03T16:01:22.935Z,75.50
2023-01-03T16:03:53.227Z,149.77
2023-01-03T16:06:22.270Z,121.78
2023-01-03T16:08:51.164Z,142.05
2023-01-03T16:11:28.014Z,94.93
2023-01-03T16:14:05.870Z,66.47
2023-01-03T16:16:38.647Z,89.75
2023-01-03T16:19:08.634Z,99.65
2023-01-03T16:21:37.617Z,113.10
2023-01-03T16:24:06.824Z,131.73
2023-01-03T16:26:35.676Z,168.82
2023-01-03T16:29:06.174Z,240.63
2023-01-03T16:31:37.000Z,241.15
2023-01-03T16:34:07.444Z,193.40
2023-01-03T16:36:39.386Z,187.55
2023-01-03T16:39:17.134Z,175.15
2023-01-03T16:42:07.336Z,153.88
2023-01-03T16:44:39.929Z,126.75
2023-01-03T16:47:14.224Z,138.07
2023-01-03T16:49:44.700Z,130.82
2023-01-03T16:52:16.426Z,118.00
2023-01-03T16:54:45.743Z,121.05
2023-01-03T16:57:18.168Z,116.72
2023-01-03T16:59:50.070Z,102.63
2023-01-03T17:02:19.112Z,99.93
2023-01-03T17:04:48.268Z,92.07
2023-01-03T17:07:21.260Z,102.13
2023-01-03T17:09:51.482Z,112.32
2023-01-03T17:12:23.823Z,117.68
2023-01-03T17:14:54.242Z,119.25
2023-01-03T17:17:24.593Z,121.72
2023-01-03T17:20:03.859Z,111.65
2023-01-03T17:22:34.839Z,113.18
2023-01-03T17:25:03.950Z,122.75
2023-01-03T17:27:33.695Z,122.75
2023-01-03T17:30:07.927Z,117.28
2023-01-03T17:32:36.928Z,107.47
2023-01-03T17:35:06.495Z,105.82
2023-01-03T17:37:51.882Z,107.88
2023-01-03T17:40:33.300Z,103.68
2023-01-03T17:43:03.676Z,105.45
2023-01-03T17:45:51.370Z,94.40
2023-01-03T17:48:49.313Z,98.05
2023-01-03T17:51:18.325Z,98.93
2023-01-03T17:53:47.721Z,100.57
2023-01-03T17:56:17.824Z,92.30
2023-01-03T17:58:55.393Z,99.55
2023-01-03T18:01:26.510Z,128.77
2023-01-03T18:03:55.463Z,125.65
2023-01-03T18:06:26.936Z,119.75
2023-01-03T18:08:57.058Z,93.95
2023-01-03T18:11:28.183Z,115.35
2023-01-03T18:13:57.128Z,123.78
2023-01-03T18:16:27.498Z,108.43
2023-01-03T18:18:56.409Z,92.30
2023-01-03T18:21:28.009Z,75.78
2023-01-03T18:24:00.127Z,61.90
2023-01-03T18:26:34.291Z,90.55
2023-01-03T18:29:05.170Z,71.65
2023-01-03T18:31:35.449Z,76.70
2023-01-03T18:34:05.146Z,81.57
2023-01-03T18:36:39.884Z,86.10
2023-01-03T18:39:14.620Z,88.28
2023-01-03T18:41:44.218Z,134.30
2023-01-03T18:44:21.477Z,141.20
2023-01-03T18:46:52.795Z,126.00
2023-01-03T18:49:21.836Z,122.47
2023-01-03T18:51:53.987Z,125.82
2023-01-03T18:54:22.884Z,121.77
2023-01-03T18:56:51.838Z,99.43
2023-01-03T18:59:22.883Z,91.88
2023-01-03T19:01:53.753Z,86.28
2023-01-03T19:04:22.943Z,86.07
2023-01-03T19:06:52.499Z,93.20
2023-01-03T19:09:23.853Z,100.15
2023-01-03T19:11:54.234Z,94.88
2023-01-03T19:14:23.162Z,99.22
2023-01-03T19:16:53.437Z,87.13
2023-01-03T19:19:22.258Z,98.07
2023-01-03T19:21:51.178Z,67.13
2023-01-03T19:24:24.658Z,74.95
2023-01-03T19:26:57.416Z,91.05
2023-01-03T19:29:36.735Z,102.53
2023-01-03T19:32:13.793Z,96.10
2023-01-03T19:34:42.661Z,98.50
2023-01-03T19:37:11.568Z,100.40
2023-01-03T19:39:40.922Z,64.68
2023-01-03T19:42:32.786Z,66.15
2023-01-03T19:45:03.408Z,77.03
2023-01-03T19:47:33.910Z,90.22
2023-01-03T19:50:16.054Z,89.13
2023-01-03T19:52:44.999Z,79.85
2023-01-03T19:55:14.497Z,77.93
2023-01-03T19:57:45.366Z,76.45
2023-01-03T20:00:21.375Z,73.20
2023-01-03T20:02:53.341Z,85.80
2023-01-03T20:05:24.867Z,78.13
2023-01-03T20:07:54.309Z,112.22
2023-01-03T20:10:25.307Z,92.78
2023-01-03T20:12:57.684Z,81.53
2023-01-03T20:15:28.868Z,85.82
2023-01-03T20:17:59.583Z,98.07
2023-01-03T20:20:31.875Z,98.03
2023-01-03T20:23:05.618Z,77.10
2023-01-03T20:25:37.528Z,92.50
2023-01-03T20:28:07.204Z,95.28
2023-01-03T20:30:36.512Z,107.50
2023-01-03T20:33:06.758Z,96.05
2023-01-03T20:38:27.366Z,123.90
2023-01-03T20:40:57.665Z,105.93
2023-01-03T20:43:26.772Z,102.85
2023-01-03T20:45:57.381Z,106.00
2023-01-03T20:48:27.637Z,105.88
2023-01-03T20:50:56.440Z,110.82
2023-01-03T20:53:26.958Z,72.88
2023-01-03T20:55:55.982Z,90.22
2023-01-03T20:58:26.514Z,87.53
2023-01-03T21:01:04.223Z,89.95
2023-01-03T21:03:36.841Z,79.93
2023-01-03T21:06:17.381Z,90.95
2023-01-03T21:08:54.794Z,104.68
2023-01-03T21:11:25.279Z,115.53
2023-01-03T21:13:54.520Z,114.15
2023-01-03T21:16:32.814Z,120.55
2023-01-03T21:19:14.218Z,171.52
2023-01-03T21:21:45.056Z,152.27
2023-01-03T21:24:15.706Z,192.95
2023-01-03T21:26:45.004Z,119.53
2023-01-03T21:29:13.883Z,126.60
2023-01-03T21:31:44.176Z,142.65
2023-01-03T21:34:19.006Z,139.02
2023-01-03T21:36:48.257Z,151.38
2023-01-03T21:39:17.530Z,119.68
2023-01-03T21:42:03.920Z,101.88
2023-01-03T21:44:32.741Z,114.15
2023-01-03T21:47:02.043Z,301.70
2023-01-03T21:49:32.335Z,298.20
2023-01-03T21:52:02.071Z,315.88
2023-01-03T21:54:30.968Z,256.10
2023-01-03T21:56:59.854Z,201.10
2023-01-03T21:59:31.716Z,219.98
2023-01-03T22:02:18.386Z,179.93
2023-01-03T22:04:48.659Z,187.27
2023-01-03T22:07:17.619Z,206.30
2023-01-03T22:10:03.844Z,223.68
2023-01-03T22:12:33.972Z,238.10
2023-01-03T22:15:04.413Z,198.02
2023-01-03T22:17:36.647Z,180.70
2023-01-03T22:20:11.737Z,143.48
2023-01-03T22:22:42.065Z,133.57
2023-01-03T22:25:13.941Z,76.80
2023-01-03T22:27:43.437Z,70.90
2023-01-03T22:30:14.685Z,68.35
2023-01-03T22:32:44.379Z,82.28
2023-01-03T22:35:16.741Z,75.38
2023-01-03T22:37:45.937Z,79.47
2023-01-03T22:40:17.086Z,62.13
2023-01-03T22:42:45.901Z,94.15
2023-01-03T22:45:15.616Z,79.93
2023-01-03T22:47:44.480Z,100.82
2023-01-03T22:50:14.860Z,87.28
2023-01-03T22:52:43.760Z,68.68
2023-01-03T22:55:12.577Z,72.07
2023-01-03T22:57:41.406Z,74.10
2023-01-03T23:00:12.295Z,69.43
2023-01-03T23:02:42.277Z,66.32
2023-01-03T23:05:11.420Z,64.90
2023-01-03T23:07:44.847Z,59.70
2023-01-03T23:10:13.751Z,62.45
2023-01-03T23:12:59.491Z,62.00
2023-01-03T23:15:30.497Z,53.20
2023-01-03T23:18:00.589Z,58.10
2023-01-03T23:20:31.631Z,53.83
2023-01-03T23:23:04.331Z,53.15
2023-01-03T23:25:36.686Z,64.82
2023-01-03T23:28:05.868Z,58.47
2023-01-03T23:30:35.810Z,55.50
2023-01-03T23:33:04.953Z,59.28
2023-01-03T23:35:34.387Z,43.17
2023-01-03T23:38:04.609Z,47.25
2023-01-03T23:40:33.566Z,63.25
2023-01-03T23:43:02.412Z,49.30
2023-01-03T23:45:31.275Z,55.75
2023-01-03T23:48:00.132Z,49.90
2023-01-03T23:50:30.194Z,45.30
2023-01-03T23:52:59.264Z,54.30
2023-01-03T23:55:29.502Z,47.45
2023-01-03T23:57:58.440Z,53.00
